Arlington, Alabama
Current Conditions -  °F | °C
As of 8:35 AM on Monday 24 Nov 2014 (Local Time) from KDYA Reporting Station
Overcast Overcast  
Wind Chill: 19°   Ceiling: 1900
Heat Index: 19°   Visibility: 10mi
Dew Point: 15°   Wind: 10mph
Humidity: 75%   Direction: 280°W
Pressure: 29.83"   Gusts: NA
Location:  32.06°N, 87.59°W
Report Text: KDYA 241435Z AUTO 28009KT 10SM BKN019 OVC026 19/15 A2983 RMK AO2 T01900145
Loading
Personal Weather Stations






























Interactive Weather Map New forecast layout! Learn more

10-Day Weather Forecast

Advertisements
Track Severe Weather on mobile